Time;durP1;ratioP1;P1;durP2;ratioP2;P2;SDS_P1;SDS_P2;PMS_P1;PMS_P2;Temp;Humidity;BMP_temperature;BMP_pressure;BME280_temperature;BME280_humidity;BME280_pressure;Samples;Min_cycle;Max_cycle;Signal;HPM_P1;HPM_P2
2022/01/06 00:01:35;;;;;;;22.50;4.60;;;5.00;99.90;;;;;;5131210;27;20051;-80
2022/01/06 00:04:02;;;;;;;18.27;4.88;;;4.90;99.90;;;;;;5120407;27;20043;-80
2022/01/06 00:06:29;;;;;;;15.13;4.05;;;4.80;99.90;;;;;;5131579;27;20498;-80
2022/01/06 00:08:57;;;;;;;14.15;2.95;;;4.70;99.90;;;;;;5131369;27;20047;-79
2022/01/06 00:11:24;;;;;;;16.67;3.22;;;4.70;99.90;;;;;;5141203;27;20054;-80
2022/01/06 00:13:57;;;;;;;28.55;3.63;;;4.60;99.90;;;;;;5126232;27;20477;-80
2022/01/06 00:16:35;;;;;;;19.42;4.07;;;4.50;99.90;;;;;;5130294;27;20512;-80
2022/01/06 00:24:30;;;;;;;19.85;3.30;;;4.20;99.90;;;;;;5129961;27;20474;-80
2022/01/06 00:26:57;;;;;;;17.67;3.17;;;4.10;99.90;;;;;;5126391;27;20524;-81
2022/01/06 00:29:24;;;;;;;18.13;3.20;;;4.10;99.90;;;;;;5123011;27;20046;-80
2022/01/06 00:31:51;;;;;;;11.18;3.28;;;4.10;99.90;;;;;;5131485;27;20092;-81
2022/01/06 00:34:18;;;;;;;22.17;3.60;;;4.00;99.90;;;;;;5127634;27;20044;-81
2022/01/06 00:36:44;;;;;;;11.35;2.92;;;4.00;99.90;;;;;;5120245;27;20486;-80
2022/01/06 00:39:11;;;;;;;15.57;3.90;;;4.10;99.90;;;;;;5118870;27;20043;-80
2022/01/06 00:41:38;;;;;;;21.02;4.20;;;4.10;99.90;;;;;;5151300;27;20336;-80
2022/01/06 00:44:04;;;;;;;8.00;2.35;;;4.00;99.90;;;;;;5137206;27;20099;-80
2022/01/06 00:46:31;;;;;;;12.07;2.72;;;4.00;99.90;;;;;;5138995;27;20046;-80
2022/01/06 00:48:57;;;;;;;4.47;1.83;;;4.00;99.90;;;;;;5142672;27;20051;-80
2022/01/06 00:51:24;;;;;;;11.80;2.70;;;4.10;99.90;;;;;;5141439;27;20050;-80
2022/01/06 00:53:50;;;;;;;11.38;1.88;;;4.30;99.90;;;;;;5152797;27;20058;-80
2022/01/06 00:56:17;;;;;;;8.30;2.45;;;4.40;99.90;;;;;;5139951;27;20055;-80
2022/01/06 00:58:43;;;;;;;6.57;2.03;;;4.50;99.90;;;;;;5130320;27;20070;-80
2022/01/06 01:01:10;;;;;;;11.07;1.92;;;4.70;99.90;;;;;;5129703;27;20042;-80
2022/01/06 01:03:37;;;;;;;18.17;2.53;;;4.80;99.90;;;;;;5140889;27;20065;-80
2022/01/06 01:06:03;;;;;;;8.93;1.70;;;4.90;99.90;;;;;;5148445;27;20047;-80
2022/01/06 01:08:32;;;;;;;12.07;2.22;;;4.80;99.90;;;;;;5126853;27;20050;-80
2022/01/06 01:10:59;;;;;;;7.43;2.60;;;4.80;99.90;;;;;;5121799;27;20105;-80
2022/01/06 01:13:31;;;;;;;8.68;1.98;;;4.80;99.90;;;;;;5137379;27;20043;-80
2022/01/06 01:16:00;;;;;;;8.48;2.13;;;4.80;99.90;;;;;;5121470;27;20111;-80
2022/01/06 01:18:26;;;;;;;8.63;2.22;;;4.70;99.90;;;;;;5114655;27;20054;-80
2022/01/06 01:20:53;;;;;;;7.50;2.10;;;4.40;99.90;;;;;;5130575;27;20053;-81
2022/01/06 01:23:20;;;;;;;11.80;2.08;;;4.30;99.90;;;;;;5123456;27;20064;-80
2022/01/06 01:25:47;;;;;;;9.27;2.00;;;4.30;99.90;;;;;;5128619;27;20078;-80
2022/01/06 01:28:15;;;;;;;10.55;2.20;;;4.20;99.90;;;;;;5122196;27;20054;-80
2022/01/06 01:30:53;;;;;;;20.38;2.10;;;4.10;99.90;;;;;;5121922;27;20697;-81
2022/01/06 01:33:20;;;;;;;7.82;1.77;;;3.90;99.90;;;;;;5133327;27;20043;-80
2022/01/06 01:35:47;;;;;;;10.65;1.95;;;3.90;99.90;;;;;;5130606;27;20082;-81
2022/01/06 01:38:13;;;;;;;6.90;1.80;;;3.90;99.90;;;;;;5142288;27;20058;-80
2022/01/06 01:40:40;;;;;;;15.88;2.35;;;3.80;99.90;;;;;;5124699;27;20047;-81
2022/01/06 01:43:06;;;;;;;14.40;2.47;;;3.70;99.90;;;;;;5115453;27;20050;-80
2022/01/06 01:45:34;;;;;;;7.90;1.42;;;3.70;99.90;;;;;;5114763;27;20050;-80
2022/01/06 01:48:05;;;;;;;7.13;1.63;;;3.60;99.90;;;;;;5138454;27;20489;-80
2022/01/06 01:50:31;;;;;;;5.40;1.63;;;3.60;99.90;;;;;;5130888;27;20465;-80
2022/01/06 01:52:58;;;;;;;6.93;1.40;;;3.50;99.90;;;;;;5126360;27;20492;-81
2022/01/06 01:55:24;;;;;;;10.70;1.38;;;3.40;99.90;;;;;;5142132;27;20043;-81
2022/01/06 01:57:51;;;;;;;4.95;1.58;;;3.40;99.90;;;;;;5124658;27;20494;-80
2022/01/06 02:00:17;;;;;;;3.28;1.10;;;3.30;99.90;;;;;;5115701;27;20054;-81
2022/01/06 02:02:44;;;;;;;8.82;1.67;;;3.10;99.90;;;;;;5127441;27;20187;-82
2022/01/06 02:05:11;;;;;;;8.48;1.40;;;3.10;99.90;;;;;;5123975;27;20074;-81
2022/01/06 02:07:38;;;;;;;14.23;2.40;;;3.00;99.90;;;;;;5113911;27;20505;-81
2022/01/06 02:10:05;;;;;;;15.25;2.42;;;3.00;99.90;;;;;;5140688;27;20069;-81
2022/01/06 02:12:34;;;;;;;14.75;2.50;;;2.90;99.90;;;;;;5126585;27;20047;-81
2022/01/06 02:15:01;;;;;;;8.85;1.65;;;2.90;99.90;;;;;;5126417;27;20402;-81
2022/01/06 02:17:27;;;;;;;8.95;1.88;;;2.80;99.90;;;;;;5132318;27;20055;-81
2022/01/06 02:19:54;;;;;;;6.57;1.90;;;2.80;99.90;;;;;;5116731;27;20396;-81
2022/01/06 02:22:20;;;;;;;5.20;1.95;;;2.80;99.90;;;;;;5139940;27;20079;-81
2022/01/06 02:24:47;;;;;;;10.80;2.03;;;2.70;99.90;;;;;;5117046;27;20050;-81
2022/01/06 02:27:13;;;;;;;13.98;1.75;;;2.80;99.90;;;;;;5132735;27;20047;-81
2022/01/06 02:29:40;;;;;;;14.85;2.58;;;2.80;99.90;;;;;;5113490;28;20047;-81
2022/01/06 02:32:07;;;;;;;5.65;1.40;;;2.80;99.90;;;;;;5131779;27;20061;-81
2022/01/06 02:34:33;;;;;;;8.85;1.83;;;2.80;99.90;;;;;;5130139;27;20062;-81
2022/01/06 02:37:00;;;;;;;22.15;2.28;;;2.80;99.90;;;;;;5123175;28;20059;-81
2022/01/06 02:39:26;;;;;;;8.75;2.08;;;3.70;99.90;;;;;;5127727;28;20050;-80
2022/01/06 02:41:53;;;;;;;10.52;1.83;;;3.80;99.90;;;;;;5113994;28;20035;-81
2022/01/06 02:44:19;;;;;;;11.43;1.15;;;3.40;99.90;;;;;;5115739;27;20054;-81
2022/01/06 02:46:46;;;;;;;6.55;1.40;;;3.20;99.90;;;;;;5115057;27;20050;-80
2022/01/06 02:49:13;;;;;;;7.20;1.38;;;3.20;99.90;;;;;;5133728;27;20058;-80
2022/01/06 02:51:39;;;;;;;3.03;1.42;;;3.50;99.90;;;;;;5130724;27;20043;-80
2022/01/06 02:54:06;;;;;;;11.32;1.98;;;3.30;99.90;;;;;;5123986;27;20047;-80
2022/01/06 02:56:33;;;;;;;3.38;2.03;;;3.20;99.90;;;;;;5116659;28;20124;-80
2022/01/06 02:58:59;;;;;;;18.17;1.85;;;3.20;99.90;;;;;;5115102;28;20418;-81
2022/01/06 03:01:26;;;;;;;3.75;1.35;;;3.20;99.90;;;;;;5131474;27;20063;-81
2022/01/06 03:03:52;;;;;;;10.05;1.23;;;3.10;99.90;;;;;;5125245;27;20050;-81
2022/01/06 03:06:19;;;;;;;4.03;1.52;;;3.10;99.90;;;;;;5140076;27;20051;-81
2022/01/06 03:08:45;;;;;;;7.63;1.73;;;3.00;99.90;;;;;;5139865;27;20047;-81
2022/01/06 03:11:12;;;;;;;5.40;1.48;;;2.90;99.90;;;;;;5139067;27;20055;-81
2022/01/06 03:13:38;;;;;;;7.75;1.95;;;2.90;99.90;;;;;;5121672;27;20043;-81
2022/01/06 03:16:05;;;;;;;7.93;1.17;;;2.70;99.90;;;;;;5131330;27;20046;-82
2022/01/06 03:18:31;;;;;;;7.93;2.25;;;2.70;99.90;;;;;;5134644;27;20047;-82
2022/01/06 03:20:58;;;;;;;5.60;1.40;;;2.70;99.90;;;;;;5129771;27;20050;-81
2022/01/06 03:23:25;;;;;;;5.97;1.23;;;2.50;99.90;;;;;;5128488;27;20051;-81
2022/01/06 03:25:51;;;;;;;3.92;1.75;;;2.50;99.90;;;;;;5124465;27;20051;-81
2022/01/06 03:28:18;;;;;;;9.65;1.42;;;2.50;99.90;;;;;;5146927;27;20047;-80
2022/01/06 03:30:44;;;;;;;8.80;0.80;;;2.50;99.90;;;;;;5130694;27;20043;-81
2022/01/06 03:33:11;;;;;;;5.78;1.13;;;2.40;99.90;;;;;;5140952;27;20051;-80
2022/01/06 03:35:37;;;;;;;2.55;0.95;;;2.40;99.90;;;;;;5137410;27;20058;-80
2022/01/06 03:38:04;;;;;;;1.63;0.70;;;2.40;99.90;;;;;;5135631;27;20057;-80
2022/01/06 03:40:30;;;;;;;2.95;0.98;;;2.30;99.90;;;;;;5118637;27;20074;-80
2022/01/06 03:42:57;;;;;;;6.32;1.98;;;2.20;99.90;;;;;;5137094;27;20413;-80
2022/01/06 03:45:23;;;;;;;5.38;1.55;;;2.20;99.90;;;;;;5125153;27;20129;-79
2022/01/06 03:47:50;;;;;;;8.35;1.73;;;2.20;99.90;;;;;;5120147;27;20069;-81
2022/01/06 03:50:16;;;;;;;9.23;1.48;;;2.10;99.90;;;;;;5130445;27;20500;-80
2022/01/06 03:52:43;;;;;;;6.85;1.48;;;2.10;99.90;;;;;;5127878;27;20053;-79
2022/01/06 03:55:09;;;;;;;4.28;1.67;;;2.10;99.90;;;;;;5129990;27;20050;-80
2022/01/06 03:57:36;;;;;;;12.25;2.22;;;2.10;99.90;;;;;;5132974;27;20058;-81
2022/01/06 04:00:02;;;;;;;6.30;1.27;;;2.10;99.90;;;;;;5116905;27;20039;-80
2022/01/06 04:02:29;;;;;;;5.35;1.52;;;2.10;99.90;;;;;;5139472;27;20050;-80
2022/01/06 04:04:56;;;;;;;5.70;1.00;;;2.00;99.90;;;;;;5122150;27;20059;-80
2022/01/06 04:07:22;;;;;;;5.80;1.08;;;2.00;99.90;;;;;;5119222;27;20047;-80
2022/01/06 04:09:49;;;;;;;4.32;1.45;;;2.00;99.90;;;;;;5125705;27;20046;-79
2022/01/06 04:12:15;;;;;;;4.05;1.60;;;2.00;99.90;;;;;;5133770;27;20046;-80
2022/01/06 04:14:42;;;;;;;6.10;1.52;;;1.90;99.90;;;;;;5132927;27;20057;-80
2022/01/06 04:17:09;;;;;;;5.80;1.17;;;1.90;99.90;;;;;;5123351;27;20047;-80
2022/01/06 04:19:35;;;;;;;6.32;0.93;;;1.80;99.90;;;;;;5127420;27;20463;-79
2022/01/06 04:22:02;;;;;;;3.70;1.15;;;1.70;99.90;;;;;;5122965;27;20051;-80
2022/01/06 04:24:32;;;;;;;5.35;1.73;;;1.80;99.90;;;;;;5118335;27;20051;-79
2022/01/06 04:26:58;;;;;;;6.00;1.35;;;1.70;99.90;;;;;;5134236;27;20102;-79
2022/01/06 04:29:25;;;;;;;15.90;1.63;;;1.70;99.90;;;;;;5123036;27;20051;-79
2022/01/06 04:31:51;;;;;;;5.75;1.23;;;1.70;99.90;;;;;;5116753;27;20058;-80
2022/01/06 04:34:18;;;;;;;16.13;1.35;;;1.70;99.90;;;;;;5127509;27;20402;-80
2022/01/06 04:36:49;;;;;;;1.95;1.08;;;1.60;99.90;;;;;;5116709;27;20051;-79
2022/01/06 04:39:16;;;;;;;4.68;1.50;;;1.60;99.90;;;;;;5120923;27;20442;-79
2022/01/06 04:41:42;;;;;;;6.25;2.05;;;1.60;99.90;;;;;;5125059;27;20055;-79
2022/01/06 04:44:09;;;;;;;3.17;1.77;;;1.60;99.90;;;;;;5126719;27;20050;-78
2022/01/06 04:46:35;;;;;;;2.38;1.83;;;1.60;99.90;;;;;;5136455;27;20047;-80
2022/01/06 04:49:04;;;;;;;4.75;1.88;;;1.70;99.90;;;;;;5135018;27;20131;-80
2022/01/06 04:51:30;;;;;;;5.47;1.98;;;1.60;99.90;;;;;;5127712;27;20071;-79
2022/01/06 04:53:57;;;;;;;8.13;1.52;;;1.70;99.90;;;;;;5137071;27;20046;-80
2022/01/06 04:56:23;;;;;;;9.23;1.95;;;1.60;99.90;;;;;;5125158;27;20477;-80
2022/01/06 04:58:50;;;;;;;6.50;2.40;;;1.60;99.90;;;;;;5120081;27;20394;-80
2022/01/06 05:01:16;;;;;;;10.50;2.78;;;1.60;99.90;;;;;;5121835;27;20054;-79
2022/01/06 05:03:43;;;;;;;7.65;2.05;;;1.60;99.90;;;;;;5126558;27;20054;-80
2022/01/06 05:06:09;;;;;;;6.90;1.63;;;1.50;99.90;;;;;;5123667;27;20047;-79
2022/01/06 05:08:36;;;;;;;9.02;1.88;;;1.50;99.90;;;;;;5133806;27;20039;-80
2022/01/06 05:11:02;;;;;;;9.25;2.33;;;1.50;99.90;;;;;;5133782;27;20059;-80
2022/01/06 05:13:29;;;;;;;7.68;2.05;;;1.50;99.90;;;;;;5125070;27;20067;-79
2022/01/06 05:15:55;;;;;;;7.85;2.65;;;1.40;99.90;;;;;;5129589;27;20497;-80
2022/01/06 05:18:22;;;;;;;6.93;2.00;;;1.30;99.90;;;;;;5138359;27;20039;-79
2022/01/06 05:20:48;;;;;;;10.82;2.35;;;1.30;99.90;;;;;;5130576;27;20054;-80
2022/01/06 05:23:15;;;;;;;12.40;2.83;;;1.40;99.90;;;;;;5144074;27;20051;-79
2022/01/06 05:25:42;;;;;;;10.32;2.53;;;1.40;99.90;;;;;;5132450;27;20045;-80
2022/01/06 05:28:08;;;;;;;8.75;3.28;;;1.40;99.90;;;;;;5124487;27;20054;-80
2022/01/06 05:30:35;;;;;;;12.23;2.67;;;1.50;99.90;;;;;;5115625;27;20043;-79
2022/01/06 05:33:01;;;;;;;20.23;3.05;;;1.50;99.90;;;;;;5142340;27;20485;-80
2022/01/06 05:35:28;;;;;;;5.68;2.67;;;1.50;99.90;;;;;;5121599;27;20486;-79
2022/01/06 05:37:54;;;;;;;6.18;2.00;;;1.50;99.90;;;;;;5152502;27;20496;-79
2022/01/06 05:40:21;;;;;;;10.13;2.97;;;1.60;99.90;;;;;;5134666;27;20051;-79
2022/01/06 05:42:49;;;;;;;10.73;2.65;;;1.60;99.90;;;;;;5115146;27;20051;-80
2022/01/06 05:45:16;;;;;;;13.57;4.07;;;1.60;99.90;;;;;;5123262;27;20386;-80
2022/01/06 05:47:42;;;;;;;6.85;2.67;;;1.60;99.90;;;;;;5115326;27;20043;-80
2022/01/06 05:50:09;;;;;;;10.98;2.08;;;1.70;99.90;;;;;;5128060;27;20050;-79
2022/01/06 05:52:36;;;;;;;6.30;2.17;;;1.70;99.90;;;;;;5133337;27;20102;-79
2022/01/06 05:55:02;;;;;;;10.40;3.40;;;1.60;99.90;;;;;;5133831;27;20046;-79
2022/01/06 05:57:29;;;;;;;7.57;2.15;;;1.50;99.90;;;;;;5129638;27;20058;-79
2022/01/06 05:59:55;;;;;;;15.43;2.65;;;1.60;99.90;;;;;;5115187;27;20051;-80
2022/01/06 06:02:22;;;;;;;15.77;2.95;;;1.60;99.90;;;;;;5119553;27;20043;-79
2022/01/06 06:04:48;;;;;;;14.43;2.70;;;1.60;99.90;;;;;;5114967;27;20494;-80
2022/01/06 06:07:17;;;;;;;13.13;2.95;;;1.60;99.90;;;;;;5117881;27;20043;-79
2022/01/06 06:09:44;;;;;;;13.00;2.30;;;1.60;99.90;;;;;;5129292;27;20491;-80
2022/01/06 06:12:11;;;;;;;11.48;2.58;;;1.60;99.90;;;;;;5143475;27;20051;-80
2022/01/06 06:14:38;;;;;;;16.75;2.70;;;1.60;99.90;;;;;;5138237;27;20051;-80
2022/01/06 06:17:05;;;;;;;10.95;2.75;;;1.70;99.90;;;;;;5116287;27;20471;-80
2022/01/06 06:19:31;;;;;;;11.18;2.05;;;1.70;99.90;;;;;;5133454;27;20375;-80
2022/01/06 06:21:58;;;;;;;11.02;4.32;;;1.70;99.90;;;;;;5151271;27;20045;-79
2022/01/06 06:24:24;;;;;;;11.75;2.97;;;1.70;99.90;;;;;;5126686;27;20399;-81
2022/01/06 06:26:52;;;;;;;12.18;2.17;;;1.70;99.90;;;;;;5146984;27;20125;-80
2022/01/06 06:29:18;;;;;;;12.07;2.53;;;1.70;99.90;;;;;;5117520;27;20061;-80
2022/01/06 06:31:45;;;;;;;11.73;2.40;;;1.70;99.90;;;;;;5115199;27;20058;-80
2022/01/06 06:34:12;;;;;;;22.13;4.18;;;1.60;99.90;;;;;;5132283;27;20058;-81
2022/01/06 06:36:38;;;;;;;13.55;3.53;;;1.70;99.90;;;;;;5131846;27;20046;-81
2022/01/06 06:39:05;;;;;;;9.30;2.95;;;1.60;99.90;;;;;;5128496;28;20050;-80
2022/01/06 06:41:31;;;;;;;11.10;3.45;;;1.60;99.90;;;;;;5121818;28;20058;-79
2022/01/06 06:43:58;;;;;;;20.52;3.45;;;1.60;99.90;;;;;;5122521;28;20047;-80
2022/01/06 06:46:24;;;;;;;16.35;3.47;;;1.70;99.90;;;;;;5121153;28;20043;-80
2022/01/06 06:48:51;;;;;;;20.05;3.83;;;1.60;99.90;;;;;;5116119;28;20057;-81
2022/01/06 06:51:18;;;;;;;19.58;4.18;;;1.60;99.90;;;;;;5123227;27;20055;-81
2022/01/06 06:53:45;;;;;;;12.80;3.10;;;1.60;99.90;;;;;;5121094;27;20043;-80
2022/01/06 06:56:11;;;;;;;11.35;3.95;;;1.50;99.90;;;;;;5127604;27;20047;-81
2022/01/06 06:58:38;;;;;;;11.18;2.78;;;1.50;99.90;;;;;;5134306;27;20606;-81
2022/01/06 07:01:04;;;;;;;17.90;4.55;;;1.40;99.90;;;;;;5121323;27;20473;-81
2022/01/06 07:03:31;;;;;;;15.95;3.08;;;1.40;99.90;;;;;;5131618;27;20424;-81
2022/01/06 07:05:57;;;;;;;21.38;3.78;;;1.30;99.90;;;;;;5134639;27;20043;-81
2022/01/06 07:08:24;;;;;;;10.80;3.95;;;1.30;99.90;;;;;;5153460;27;20042;-81
2022/01/06 07:10:50;;;;;;;9.63;2.85;;;1.20;99.90;;;;;;5136294;27;20077;-81
2022/01/06 07:13:18;;;;;;;14.32;2.65;;;1.10;99.90;;;;;;5134802;27;20500;-81
2022/01/06 07:15:45;;;;;;;18.77;3.92;;;1.10;99.90;;;;;;5135784;27;20043;-82
2022/01/06 07:18:11;;;;;;;12.45;2.28;;;1.10;99.90;;;;;;5134390;27;20042;-81
2022/01/06 07:20:38;;;;;;;10.88;3.10;;;1.20;99.90;;;;;;5134654;27;20054;-82
2022/01/06 07:23:04;;;;;;;20.52;5.25;;;1.20;99.90;;;;;;5134682;27;20047;-81
2022/01/06 07:25:31;;;;;;;13.75;3.95;;;1.20;99.90;;;;;;5134724;27;20059;-82
2022/01/06 07:27:57;;;;;;;12.32;3.47;;;1.20;99.90;;;;;;5132492;27;20038;-80
2022/01/06 07:30:24;;;;;;;25.23;4.13;;;1.20;99.90;;;;;;5134264;27;20043;-82
2022/01/06 07:32:50;;;;;;;19.73;3.78;;;1.30;99.90;;;;;;5135027;27;20119;-82
2022/01/06 07:35:17;;;;;;;17.58;3.30;;;1.30;99.90;;;;;;5135932;27;20039;-82
2022/01/06 07:37:43;;;;;;;12.38;4.47;;;1.30;99.90;;;;;;5133752;27;20043;-82
2022/01/06 07:40:10;;;;;;;22.80;3.83;;;1.30;99.90;;;;;;5131358;27;20054;-81
2022/01/06 07:42:38;;;;;;;13.60;3.50;;;1.30;99.90;;;;;;5136231;27;20473;-82
2022/01/06 07:45:04;;;;;;;15.88;3.58;;;1.30;99.90;;;;;;5134821;27;20054;-81
2022/01/06 07:47:33;;;;;;;16.60;3.80;;;1.30;99.90;;;;;;5135319;27;20043;-81
2022/01/06 07:49:59;;;;;;;16.35;3.80;;;1.30;99.90;;;;;;5132996;27;20122;-81
2022/01/06 07:52:26;;;;;;;16.58;3.05;;;1.30;99.90;;;;;;5135480;27;20053;-82
2022/01/06 07:54:52;;;;;;;12.68;4.00;;;1.20;99.90;;;;;;5134989;27;20046;-82
2022/01/06 07:57:19;;;;;;;13.80;3.65;;;1.20;99.90;;;;;;5133049;27;20117;-82
2022/01/06 07:59:45;;;;;;;16.17;3.45;;;1.20;99.90;;;;;;5135393;27;20050;-82
2022/01/06 08:02:12;;;;;;;8.65;2.83;;;1.20;99.90;;;;;;5131333;27;20053;-82
2022/01/06 08:04:38;;;;;;;23.02;4.32;;;1.20;99.90;;;;;;5135177;27;20041;-82
2022/01/06 08:07:05;;;;;;;21.13;5.07;;;1.00;99.90;;;;;;5132817;27;20054;-82
2022/01/06 08:09:32;;;;;;;19.83;4.32;;;0.90;99.90;;;;;;5131061;27;20047;-82
2022/01/06 08:11:58;;;;;;;22.08;3.65;;;0.90;99.90;;;;;;5132971;27;20073;-82
2022/01/06 08:14:25;;;;;;;25.05;5.10;;;1.00;99.90;;;;;;5132027;27;20066;-82
2022/01/06 08:16:51;;;;;;;14.45;3.88;;;1.00;99.90;;;;;;5129540;27;20046;-82
2022/01/06 08:19:18;;;;;;;25.52;4.95;;;1.00;99.90;;;;;;5131987;27;20047;-82
2022/01/06 08:21:45;;;;;;;31.75;3.92;;;1.10;99.90;;;;;;5134710;27;20051;-82
2022/01/06 08:24:12;;;;;;;9.95;2.65;;;1.00;99.90;;;;;;5134328;27;20055;-82
2022/01/06 08:26:38;;;;;;;14.90;4.75;;;1.10;99.90;;;;;;5133798;27;20050;-82
2022/01/06 08:29:05;;;;;;;19.92;3.30;;;1.00;99.90;;;;;;5149877;27;20054;-82
2022/01/06 08:31:32;;;;;;;20.13;4.60;;;1.20;99.90;;;;;;5134954;27;20050;-81
2022/01/06 08:33:59;;;;;;;15.02;4.07;;;1.20;99.90;;;;;;5135931;27;20047;-82
2022/01/06 08:36:25;;;;;;;17.02;4.90;;;1.30;99.90;;;;;;5133286;27;20046;-82
2022/01/06 08:38:52;;;;;;;14.02;3.75;;;1.40;99.90;;;;;;5131800;27;20061;-81
2022/01/06 08:41:18;;;;;;;16.02;3.25;;;1.50;99.90;;;;;;5130920;27;20046;-81
2022/01/06 08:43:45;;;;;;;15.07;3.70;;;1.50;99.90;;;;;;5131729;27;20054;-82
2022/01/06 08:46:11;;;;;;;24.98;5.07;;;1.60;99.90;;;;;;5128909;27;20480;-84
2022/01/06 08:48:38;;;;;;;22.88;4.82;;;1.50;99.90;;;;;;5134153;27;20042;-83
2022/01/06 08:51:04;;;;;;;16.88;4.50;;;1.60;99.90;;;;;;5132023;27;20050;-83
2022/01/06 08:53:31;;;;;;;17.10;4.50;;;1.60;99.90;;;;;;5131650;27;20525;-84
2022/01/06 08:55:57;;;;;;;22.27;4.93;;;1.70;99.90;;;;;;5134775;27;20057;-84
2022/01/06 08:58:24;;;;;;;26.95;5.40;;;1.70;99.90;;;;;;5130395;27;20070;-83
2022/01/06 09:00:50;;;;;;;17.02;4.60;;;1.80;99.90;;;;;;5134447;27;20069;-83
2022/01/06 09:03:17;;;;;;;21.42;5.25;;;1.80;99.90;;;;;;5131903;27;20054;-83
2022/01/06 09:05:44;;;;;;;25.02;6.28;;;1.90;99.90;;;;;;5132581;27;20042;-83
2022/01/06 09:08:10;;;;;;;15.07;5.35;;;2.00;99.90;;;;;;5127990;27;20398;-82
2022/01/06 09:10:37;;;;;;;17.48;4.70;;;2.00;99.90;;;;;;5128576;27;20390;-82
2022/01/06 09:13:03;;;;;;;24.45;4.15;;;2.10;99.90;;;;;;5127733;27;20078;-82
2022/01/06 09:15:30;;;;;;;7.85;4.10;;;2.10;99.90;;;;;;5130612;27;20069;-82
2022/01/06 09:17:57;;;;;;;17.88;4.85;;;2.20;99.90;;;;;;5128104;27;20062;-82
2022/01/06 09:20:24;;;;;;;13.80;4.70;;;2.30;99.90;;;;;;5123447;27;20719;-82
2022/01/06 09:22:50;;;;;;;16.42;4.28;;;2.30;99.90;;;;;;5125586;27;20054;-82
2022/01/06 09:25:17;;;;;;;24.42;4.88;;;2.40;99.90;;;;;;5119623;27;20069;-82
2022/01/06 09:27:43;;;;;;;13.05;5.07;;;2.40;99.90;;;;;;5123588;27;20053;-82
2022/01/06 09:30:10;;;;;;;17.10;5.85;;;2.40;99.90;;;;;;5126513;27;20054;-81
2022/01/06 09:32:36;;;;;;;19.85;5.50;;;2.50;99.90;;;;;;5121883;27;20050;-82
2022/01/06 09:35:03;;;;;;;13.77;4.13;;;2.60;99.90;;;;;;5118018;27;20067;-82
2022/01/06 09:37:29;;;;;;;22.90;5.57;;;2.70;99.90;;;;;;5137750;27;20043;-82
2022/01/06 09:39:56;;;;;;;19.45;5.00;;;2.80;99.90;;;;;;5123947;27;20058;-82
2022/01/06 09:42:22;;;;;;;18.52;6.53;;;2.80;99.90;;;;;;5139634;27;20612;-82
2022/01/06 09:44:49;;;;;;;14.38;4.32;;;2.90;99.90;;;;;;5122050;27;20497;-82
2022/01/06 09:47:16;;;;;;;18.38;4.13;;;3.00;99.90;;;;;;5121356;27;20055;-81
2022/01/06 09:49:44;;;;;;;15.23;5.03;;;3.10;99.90;;;;;;5118019;27;20059;-81
2022/01/06 09:52:10;;;;;;;30.95;6.15;;;3.10;99.90;;;;;;5126197;27;20500;-82
2022/01/06 09:54:37;;;;;;;20.33;5.25;;;3.10;99.90;;;;;;5118378;27;20474;-81
2022/01/06 09:57:03;;;;;;;17.40;4.50;;;3.20;99.90;;;;;;5118078;27;20051;-81
2022/01/06 09:59:30;;;;;;;19.38;6.28;;;3.20;99.90;;;;;;5124725;27;20058;-81
2022/01/06 10:01:58;;;;;;;20.25;6.45;;;3.30;99.90;;;;;;5116525;27;20055;-81
2022/01/06 10:04:27;;;;;;;17.92;5.05;;;3.40;99.90;;;;;;5116551;27;20073;-80
2022/01/06 10:06:54;;;;;;;24.73;6.00;;;3.50;99.90;;;;;;5115126;27;20055;-82
2022/01/06 10:09:20;;;;;;;18.55;4.60;;;3.50;99.90;;;;;;5114775;27;20058;-80
2022/01/06 10:11:47;;;;;;;18.67;5.22;;;3.60;99.90;;;;;;5127949;27;20051;-82
2022/01/06 10:14:20;;;;;;;14.98;4.22;;;3.60;99.90;;;;;;5121113;27;20047;-83
2022/01/06 10:16:50;;;;;;;25.10;5.25;;;3.70;99.90;;;;;;5130900;27;20471;-82
2022/01/06 10:19:16;;;;;;;20.65;5.30;;;3.70;99.90;;;;;;5125775;27;20122;-83
2022/01/06 10:21:43;;;;;;;31.73;5.90;;;3.80;99.90;;;;;;5118558;27;20051;-82
2022/01/06 10:24:09;;;;;;;38.03;5.72;;;3.80;99.90;;;;;;5125590;27;20047;-82
2022/01/06 10:26:36;;;;;;;17.13;4.97;;;3.80;99.90;;;;;;5127135;27;20061;-82
2022/01/06 10:29:03;;;;;;;22.80;5.55;;;3.90;99.90;;;;;;5125230;27;20051;-82
2022/01/06 10:31:29;;;;;;;21.55;4.68;;;3.90;99.90;;;;;;5131276;27;20080;-82
2022/01/06 10:33:56;;;;;;;13.10;3.45;;;3.90;99.90;;;;;;5136421;27;20050;-82
2022/01/06 10:36:22;;;;;;;21.15;4.57;;;4.00;99.90;;;;;;5128049;27;20046;-82
2022/01/06 10:38:49;;;;;;;26.65;4.13;;;4.10;99.90;;;;;;5122097;27;20059;-81
2022/01/06 10:41:16;;;;;;;19.55;4.82;;;4.10;99.90;;;;;;5125191;27;20047;-82
2022/01/06 10:43:42;;;;;;;11.80;3.78;;;4.10;99.90;;;;;;5122313;27;20038;-81
2022/01/06 10:46:09;;;;;;;18.23;4.18;;;4.20;99.90;;;;;;5140263;27;20046;-81
2022/01/06 10:48:35;;;;;;;25.25;5.50;;;4.20;99.90;;;;;;5127367;28;20616;-81
2022/01/06 10:51:02;;;;;;;24.90;5.60;;;4.30;99.90;;;;;;5127521;27;20047;-81
2022/01/06 10:53:29;;;;;;;28.63;5.43;;;4.30;99.90;;;;;;5119504;27;20397;-82
2022/01/06 10:55:55;;;;;;;21.23;6.25;;;4.30;99.90;;;;;;5116979;28;20066;-81
2022/01/06 10:58:22;;;;;;;27.58;6.97;;;4.30;99.90;;;;;;5129789;27;20408;-81
2022/01/06 11:00:49;;;;;;;21.10;6.70;;;4.40;99.90;;;;;;5133959;27;20122;-84
2022/01/06 11:03:15;;;;;;;26.35;6.40;;;4.40;99.90;;;;;;5145306;27;20490;-84
2022/01/06 11:05:42;;;;;;;21.77;5.43;;;4.40;99.90;;;;;;5128946;28;20047;-83
2022/01/06 11:08:08;;;;;;;17.15;5.97;;;4.50;99.90;;;;;;5130971;27;20039;-84
2022/01/06 11:10:37;;;;;;;22.35;6.00;;;4.50;99.90;;;;;;5130017;27;20055;-84
2022/01/06 11:13:03;;;;;;;24.17;5.60;;;4.50;99.90;;;;;;5132820;27;20493;-84
2022/01/06 11:15:30;;;;;;;23.63;6.78;;;4.60;99.90;;;;;;5107248;28;20062;-85
2022/01/06 11:17:56;;;;;;;18.90;4.10;;;4.70;99.90;;;;;;5107337;28;20048;-85
2022/01/06 11:20:23;;;;;;;28.30;5.50;;;4.80;99.90;;;;;;5104246;28;20035;-85
2022/01/06 11:22:50;;;;;;;25.27;5.80;;;4.80;99.90;;;;;;5108911;28;20044;-84
2022/01/06 11:25:16;;;;;;;25.45;5.07;;;4.90;99.90;;;;;;5095632;28;20056;-85
2022/01/06 11:27:43;;;;;;;18.42;4.95;;;4.90;99.90;;;;;;5106796;28;20043;-84
2022/01/06 11:30:09;;;;;;;12.82;4.43;;;5.00;99.90;;;;;;5107055;28;20051;-84
2022/01/06 11:32:36;;;;;;;15.60;4.22;;;5.10;99.90;;;;;;5109099;28;20052;-84
2022/01/06 11:35:03;;;;;;;15.80;4.45;;;5.20;99.90;;;;;;5105080;28;20544;-83
2022/01/06 11:37:29;;;;;;;13.65;4.32;;;5.20;99.90;;;;;;5107455;28;20507;-84
2022/01/06 11:39:56;;;;;;;23.20;4.47;;;5.30;99.90;;;;;;5108474;28;20051;-84
2022/01/06 11:42:25;;;;;;;15.55;3.65;;;5.30;99.90;;;;;;5110715;28;20493;-84
2022/01/06 11:44:52;;;;;;;20.33;4.90;;;5.30;99.90;;;;;;5111618;28;20064;-84
2022/01/06 11:47:18;;;;;;;26.13;5.70;;;5.40;99.90;;;;;;5109739;28;20047;-84
2022/01/06 11:49:45;;;;;;;19.00;4.65;;;5.40;99.90;;;;;;5110654;28;20048;-84
2022/01/06 11:52:12;;;;;;;20.75;4.78;;;5.50;99.90;;;;;;5098491;28;20044;-84
2022/01/06 11:54:38;;;;;;;23.00;4.93;;;5.50;99.90;;;;;;5097705;28;20149;-84
2022/01/06 11:57:05;;;;;;;15.73;4.68;;;5.50;99.90;;;;;;5108588;28;20043;-84
2022/01/06 11:59:31;;;;;;;21.55;4.38;;;5.60;99.90;;;;;;5107803;28;20055;-84
2022/01/06 12:01:58;;;;;;;19.95;5.03;;;5.60;99.90;;;;;;5105591;28;20055;-84
2022/01/06 12:04:24;;;;;;;19.88;4.22;;;5.70;99.90;;;;;;5098918;28;20050;-85
2022/01/06 12:06:51;;;;;;;21.92;4.43;;;5.70;99.90;;;;;;5101611;28;20051;-83
2022/01/06 12:09:18;;;;;;;11.98;4.70;;;5.70;99.90;;;;;;5107254;28;20036;-84
2022/01/06 12:11:44;;;;;;;27.17;5.13;;;5.70;99.90;;;;;;5103210;28;20483;-84
2022/01/06 12:14:11;;;;;;;17.13;4.32;;;5.80;99.90;;;;;;5116165;27;20048;-84
2022/01/06 12:16:38;;;;;;;24.05;4.55;;;5.80;99.90;;;;;;5122772;27;20512;-84
2022/01/06 12:19:04;;;;;;;25.63;4.85;;;5.70;99.90;;;;;;5121808;27;20051;-84
2022/01/06 12:21:31;;;;;;;21.95;4.55;;;5.80;99.90;;;;;;5124452;27;20060;-85
2022/01/06 12:23:57;;;;;;;22.38;4.45;;;5.80;99.90;;;;;;5125930;27;20122;-84
2022/01/06 12:26:24;;;;;;;16.15;4.95;;;5.90;99.90;;;;;;5112988;27;20036;-84
2022/01/06 12:28:50;;;;;;;17.58;3.80;;;5.90;99.90;;;;;;5113441;27;20063;-83
2022/01/06 12:31:17;;;;;;;17.77;4.15;;;5.80;99.90;;;;;;5127038;27;20054;-83
2022/01/06 12:33:44;;;;;;;21.55;4.53;;;5.90;99.90;;;;;;5121670;27;20498;-84
2022/01/06 12:36:10;;;;;;;23.08;5.22;;;5.90;99.90;;;;;;5117680;27;20044;-84
2022/01/06 12:38:39;;;;;;;20.50;4.38;;;5.90;99.90;;;;;;5110381;27;20055;-84
2022/01/06 12:41:06;;;;;;;22.42;4.40;;;5.90;99.90;;;;;;5124210;27;20048;-81
2022/01/06 12:43:32;;;;;;;19.05;4.80;;;5.90;99.90;;;;;;5125054;27;20054;-81
2022/01/06 12:45:59;;;;;;;13.40;3.60;;;5.90;99.90;;;;;;5114127;27;20052;-82
2022/01/06 12:48:25;;;;;;;19.13;5.22;;;6.00;99.90;;;;;;5121566;27;20047;-82
2022/01/06 12:50:52;;;;;;;11.40;4.30;;;5.90;99.90;;;;;;5109264;27;20136;-82
2022/01/06 12:53:19;;;;;;;22.30;4.45;;;5.90;99.90;;;;;;5115411;27;20478;-82